sensor_id;sensor_type;location;lat;lon;timestamp;pressure;altitude;pressure_sealevel;temperature;humidity
45050;BME280;61798;48.048;-1.928;2023-06-10T00:01:53;100360.56;;;17.04;100.00
45050;BME280;61798;48.048;-1.928;2023-06-10T00:04:05;100368.72;;;16.92;100.00
45050;BME280;61798;48.048;-1.928;2023-06-10T00:06:12;100370.81;;;17.02;100.00
45050;BME280;61798;48.048;-1.928;2023-06-10T00:08:19;100371.44;;;16.92;100.00
45050;BME280;61798;48.048;-1.928;2023-06-10T00:10:26;100377.34;;;16.89;100.00
45050;BME280;61798;48.048;-1.928;2023-06-10T00:12:33;100358.84;;;16.98;100.00
45050;BME280;61798;48.048;-1.928;2023-06-10T00:14:44;100362.75;;;16.90;100.00
45050;BME280;61798;48.048;-1.928;2023-06-10T00:16:51;100371.44;;;16.92;100.00
45050;BME280;61798;48.048;-1.928;2023-06-10T00:19:00;100376.84;;;16.92;100.00
45050;BME280;61798;48.048;-1.928;2023-06-10T00:21:07;100363.81;;;16.89;100.00
45050;BME280;61798;48.048;-1.928;2023-06-10T00:23:14;100375.47;;;16.89;100.00
45050;BME280;61798;48.048;-1.928;2023-06-10T00:25:21;100359.28;;;16.77;100.00
45050;BME280;61798;48.048;-1.928;2023-06-10T00:27:29;100350.25;;;16.72;100.00
45050;BME280;61798;48.048;-1.928;2023-06-10T00:29:44;100372.91;;;16.83;100.00
45050;BME280;61798;48.048;-1.928;2023-06-10T00:31:51;100363.88;;;16.77;100.00
45050;BME280;61798;48.048;-1.928;2023-06-10T00:34:00;100354.25;;;16.69;100.00
45050;BME280;61798;48.048;-1.928;2023-06-10T00:36:08;100357.63;;;16.76;100.00
45050;BME280;61798;48.048;-1.928;2023-06-10T00:38:15;100352.81;;;16.78;100.00
45050;BME280;61798;48.048;-1.928;2023-06-10T00:40:22;100353.53;;;16.74;100.00
45050;BME280;61798;48.048;-1.928;2023-06-10T00:42:30;100365.63;;;16.83;100.00
45050;BME280;61798;48.048;-1.928;2023-06-10T00:44:36;100355.34;;;16.85;100.00
45050;BME280;61798;48.048;-1.928;2023-06-10T00:46:44;100339.66;;;16.99;100.00
45050;BME280;61798;48.048;-1.928;2023-06-10T00:48:51;100334.38;;;17.22;100.00
45050;BME280;61798;48.048;-1.928;2023-06-10T00:51:01;100321.31;;;17.36;100.00
45050;BME280;61798;48.048;-1.928;2023-06-10T00:53:09;100302.28;;;17.31;100.00
45050;BME280;61798;48.048;-1.928;2023-06-10T00:55:17;100299.41;;;17.38;100.00
45050;BME280;61798;48.048;-1.928;2023-06-10T00:57:24;100283.16;;;17.20;100.00
45050;BME280;61798;48.048;-1.928;2023-06-10T00:59:32;100297.53;;;17.38;100.00
45050;BME280;61798;48.048;-1.928;2023-06-10T01:01:38;100293.81;;;17.44;100.00
45050;BME280;61798;48.048;-1.928;2023-06-10T01:03:45;100273.66;;;17.35;100.00
45050;BME280;61798;48.048;-1.928;2023-06-10T01:05:59;100282.00;;;17.51;100.00
45050;BME280;61798;48.048;-1.928;2023-06-10T01:08:33;100282.31;;;17.37;100.00
45050;BME280;61798;48.048;-1.928;2023-06-10T01:10:51;100280.03;;;17.29;100.00
45050;BME280;61798;48.048;-1.928;2023-06-10T01:13:10;100292.91;;;17.21;100.00
45050;BME280;61798;48.048;-1.928;2023-06-10T01:15:20;100283.38;;;17.36;100.00
45050;BME280;61798;48.048;-1.928;2023-06-10T01:17:28;100274.94;;;17.32;100.00
45050;BME280;61798;48.048;-1.928;2023-06-10T01:19:37;100270.75;;;17.42;100.00
45050;BME280;61798;48.048;-1.928;2023-06-10T01:21:44;100261.16;;;17.34;100.00
45050;BME280;61798;48.048;-1.928;2023-06-10T01:23:55;100274.09;;;17.49;100.00
45050;BME280;61798;48.048;-1.928;2023-06-10T01:26:09;100270.88;;;17.52;100.00
45050;BME280;61798;48.048;-1.928;2023-06-10T01:28:36;100270.41;;;17.56;100.00
45050;BME280;61798;48.048;-1.928;2023-06-10T01:33:01;100271.28;;;17.61;100.00
45050;BME280;61798;48.048;-1.928;2023-06-10T01:35:09;100260.44;;;17.61;100.00
45050;BME280;61798;48.048;-1.928;2023-06-10T01:37:19;100261.84;;;17.64;100.00
45050;BME280;61798;48.048;-1.928;2023-06-10T01:39:28;100250.31;;;17.51;100.00
45050;BME280;61798;48.048;-1.928;2023-06-10T01:41:36;100266.09;;;17.60;100.00
45050;BME280;61798;48.048;-1.928;2023-06-10T01:43:45;100266.63;;;17.57;100.00
45050;BME280;61798;48.048;-1.928;2023-06-10T01:45:52;100275.00;;;17.55;100.00
45050;BME280;61798;48.048;-1.928;2023-06-10T01:47:59;100275.16;;;17.48;100.00
45050;BME280;61798;48.048;-1.928;2023-06-10T01:50:06;100290.84;;;17.46;100.00
45050;BME280;61798;48.048;-1.928;2023-06-10T01:52:14;100297.00;;;17.41;100.00
45050;BME280;61798;48.048;-1.928;2023-06-10T01:54:21;100295.47;;;17.46;100.00
45050;BME280;61798;48.048;-1.928;2023-06-10T01:56:28;100306.84;;;17.48;100.00
45050;BME280;61798;48.048;-1.928;2023-06-10T01:58:36;100320.50;;;17.36;100.00
45050;BME280;61798;48.048;-1.928;2023-06-10T02:00:43;100313.84;;;17.26;100.00
45050;BME280;61798;48.048;-1.928;2023-06-10T02:02:49;100339.88;;;17.27;100.00
45050;BME280;61798;48.048;-1.928;2023-06-10T02:04:57;100335.66;;;17.19;100.00
45050;BME280;61798;48.048;-1.928;2023-06-10T02:07:04;100324.00;;;17.19;100.00
45050;BME280;61798;48.048;-1.928;2023-06-10T02:09:12;100316.69;;;17.19;100.00
45050;BME280;61798;48.048;-1.928;2023-06-10T02:11:19;100332.22;;;17.24;100.00
45050;BME280;61798;48.048;-1.928;2023-06-10T02:13:26;100338.84;;;17.16;100.00
45050;BME280;61798;48.048;-1.928;2023-06-10T02:15:34;100320.50;;;16.89;100.00
45050;BME280;61798;48.048;-1.928;2023-06-10T02:17:41;100337.97;;;16.81;100.00
45050;BME280;61798;48.048;-1.928;2023-06-10T02:19:49;100344.19;;;16.81;100.00
45050;BME280;61798;48.048;-1.928;2023-06-10T02:21:59;100331.06;;;16.73;100.00
45050;BME280;61798;48.048;-1.928;2023-06-10T02:24:06;100340.00;;;16.74;100.00
45050;BME280;61798;48.048;-1.928;2023-06-10T02:26:13;100345.06;;;16.70;100.00
45050;BME280;61798;48.048;-1.928;2023-06-10T02:28:21;100347.44;;;16.66;100.00
45050;BME280;61798;48.048;-1.928;2023-06-10T02:30:28;100354.50;;;16.67;100.00
45050;BME280;61798;48.048;-1.928;2023-06-10T02:32:35;100352.63;;;16.68;100.00
45050;BME280;61798;48.048;-1.928;2023-06-10T02:34:42;100353.09;;;16.65;100.00
45050;BME280;61798;48.048;-1.928;2023-06-10T02:36:49;100342.88;;;16.67;100.00
45050;BME280;61798;48.048;-1.928;2023-06-10T02:38:58;100327.13;;;16.64;100.00
45050;BME280;61798;48.048;-1.928;2023-06-10T02:41:05;100334.63;;;16.62;100.00
45050;BME280;61798;48.048;-1.928;2023-06-10T02:43:12;100313.53;;;16.46;100.00
45050;BME280;61798;48.048;-1.928;2023-06-10T02:45:22;100328.78;;;16.82;100.00
45050;BME280;61798;48.048;-1.928;2023-06-10T02:47:29;100314.81;;;17.02;100.00
45050;BME280;61798;48.048;-1.928;2023-06-10T02:49:36;100322.44;;;17.06;100.00
45050;BME280;61798;48.048;-1.928;2023-06-10T02:51:44;100319.56;;;16.95;100.00
45050;BME280;61798;48.048;-1.928;2023-06-10T02:53:51;100310.78;;;17.05;100.00
45050;BME280;61798;48.048;-1.928;2023-06-10T02:55:58;100299.94;;;16.88;100.00
45050;BME280;61798;48.048;-1.928;2023-06-10T02:58:05;100306.03;;;16.95;100.00
45050;BME280;61798;48.048;-1.928;2023-06-10T03:00:12;100304.31;;;17.06;100.00
45050;BME280;61798;48.048;-1.928;2023-06-10T03:02:21;100301.09;;;17.09;100.00
45050;BME280;61798;48.048;-1.928;2023-06-10T03:04:28;100272.28;;;16.86;100.00
45050;BME280;61798;48.048;-1.928;2023-06-10T03:06:35;100302.81;;;16.98;100.00
45050;BME280;61798;48.048;-1.928;2023-06-10T03:08:42;100316.50;;;17.09;100.00
45050;BME280;61798;48.048;-1.928;2023-06-10T03:10:50;100315.34;;;17.05;100.00
45050;BME280;61798;48.048;-1.928;2023-06-10T03:12:57;100317.16;;;17.16;100.00
45050;BME280;61798;48.048;-1.928;2023-06-10T03:15:04;100312.03;;;17.32;100.00
45050;BME280;61798;48.048;-1.928;2023-06-10T03:17:12;100307.63;;;17.26;100.00
45050;BME280;61798;48.048;-1.928;2023-06-10T03:19:19;100315.88;;;17.36;100.00
45050;BME280;61798;48.048;-1.928;2023-06-10T03:21:28;100312.72;;;17.39;100.00
45050;BME280;61798;48.048;-1.928;2023-06-10T03:23:35;100301.19;;;17.32;100.00
45050;BME280;61798;48.048;-1.928;2023-06-10T03:25:42;100314.66;;;17.44;100.00
45050;BME280;61798;48.048;-1.928;2023-06-10T03:27:49;100313.19;;;17.36;100.00
45050;BME280;61798;48.048;-1.928;2023-06-10T03:29:56;100288.56;;;17.20;100.00
45050;BME280;61798;48.048;-1.928;2023-06-10T03:32:03;100319.69;;;17.35;100.00
45050;BME280;61798;48.048;-1.928;2023-06-10T03:34:10;100325.09;;;17.35;100.00
45050;BME280;61798;48.048;-1.928;2023-06-10T03:36:18;100322.63;;;17.33;100.00
45050;BME280;61798;48.048;-1.928;2023-06-10T03:38:25;100333.63;;;17.27;100.00
45050;BME280;61798;48.048;-1.928;2023-06-10T03:40:32;100329.09;;;17.32;100.00
45050;BME280;61798;48.048;-1.928;2023-06-10T03:42:41;100312.47;;;17.23;100.00
45050;BME280;61798;48.048;-1.928;2023-06-10T03:44:50;100316.84;;;17.12;100.00
45050;BME280;61798;48.048;-1.928;2023-06-10T03:46:57;100305.88;;;17.19;100.00
45050;BME280;61798;48.048;-1.928;2023-06-10T03:49:04;100318.78;;;17.29;100.00
45050;BME280;61798;48.048;-1.928;2023-06-10T03:51:11;100311.28;;;17.37;100.00
45050;BME280;61798;48.048;-1.928;2023-06-10T03:53:18;100307.63;;;17.43;100.00
45050;BME280;61798;48.048;-1.928;2023-06-10T03:55:25;100309.81;;;17.46;100.00
45050;BME280;61798;48.048;-1.928;2023-06-10T03:57:33;100314.66;;;17.44;100.00
45050;BME280;61798;48.048;-1.928;2023-06-10T03:59:40;100308.53;;;17.31;100.00
45050;BME280;61798;48.048;-1.928;2023-06-10T04:01:47;100320.88;;;17.44;100.00
45050;BME280;61798;48.048;-1.928;2023-06-10T04:03:54;100313.91;;;17.49;100.00
45050;BME280;61798;48.048;-1.928;2023-06-10T04:06:02;100318.34;;;17.38;100.00
45050;BME280;61798;48.048;-1.928;2023-06-10T04:08:09;100320.75;;;17.34;100.00
45050;BME280;61798;48.048;-1.928;2023-06-10T04:10:16;100329.94;;;17.33;100.00
45050;BME280;61798;48.048;-1.928;2023-06-10T04:12:22;100319.22;;;17.09;100.00
45050;BME280;61798;48.048;-1.928;2023-06-10T04:14:29;100330.06;;;17.09;100.00
45050;BME280;61798;48.048;-1.928;2023-06-10T04:16:37;100337.94;;;17.10;100.00
45050;BME280;61798;48.048;-1.928;2023-06-10T04:18:45;100338.84;;;17.16;100.00
45050;BME280;61798;48.048;-1.928;2023-06-10T04:20:52;100335.56;;;17.14;100.00
45050;BME280;61798;48.048;-1.928;2023-06-10T04:22:59;100340.84;;;17.21;100.00
45050;BME280;61798;48.048;-1.928;2023-06-10T04:25:08;100333.53;;;17.21;100.00
45050;BME280;61798;48.048;-1.928;2023-06-10T04:27:15;100337.22;;;17.32;100.00
45050;BME280;61798;48.048;-1.928;2023-06-10T04:29:22;100335.09;;;17.35;100.00
45050;BME280;61798;48.048;-1.928;2023-06-10T04:31:29;100334.69;;;17.43;100.00
45050;BME280;61798;48.048;-1.928;2023-06-10T04:33:36;100315.88;;;17.36;100.00
45050;BME280;61798;48.048;-1.928;2023-06-10T04:35:43;100328.53;;;17.48;100.00
45050;BME280;61798;48.048;-1.928;2023-06-10T04:37:50;100323.09;;;17.48;100.00
45050;BME280;61798;48.048;-1.928;2023-06-10T04:39:57;100328.53;;;17.48;100.00
45050;BME280;61798;48.048;-1.928;2023-06-10T04:42:04;100340.13;;;17.43;100.00
45050;BME280;61798;48.048;-1.928;2023-06-10T04:44:12;100332.41;;;17.35;100.00
45050;BME280;61798;48.048;-1.928;2023-06-10T04:46:20;100332.81;;;17.26;100.00
45050;BME280;61798;48.048;-1.928;2023-06-10T04:48:27;100329.84;;;17.28;100.00
45050;BME280;61798;48.048;-1.928;2023-06-10T04:50:34;100351.59;;;17.33;100.00
45050;BME280;61798;48.048;-1.928;2023-06-10T04:52:40;100334.72;;;17.13;100.00
45050;BME280;61798;48.048;-1.928;2023-06-10T04:54:48;100354.47;;;17.26;100.00
45050;BME280;61798;48.048;-1.928;2023-06-10T04:56:56;100355.34;;;17.32;100.00
45050;BME280;61798;48.048;-1.928;2023-06-10T04:59:03;100342.91;;;17.31;100.00
45050;BME280;61798;48.048;-1.928;2023-06-10T05:01:10;100357.19;;;17.43;100.00
45050;BME280;61798;48.048;-1.928;2023-06-10T05:03:17;100359.91;;;17.43;100.00
45050;BME280;61798;48.048;-1.928;2023-06-10T05:05:24;100349.53;;;17.40;100.00
45050;BME280;61798;48.048;-1.928;2023-06-10T05:07:32;100358.31;;;17.48;100.00
45050;BME280;61798;48.048;-1.928;2023-06-10T05:09:40;100328.22;;;17.27;100.00
45050;BME280;61798;48.048;-1.928;2023-06-10T05:11:47;100361.63;;;17.50;100.00
45050;BME280;61798;48.048;-1.928;2023-06-10T05:13:58;100365.72;;;17.52;100.00
45050;BME280;61798;48.048;-1.928;2023-06-10T05:16:05;100359.47;;;17.52;100.00
45050;BME280;61798;48.048;-1.928;2023-06-10T05:18:13;100334.28;;;17.34;100.00
45050;BME280;61798;48.048;-1.928;2023-06-10T05:20:20;100357.44;;;17.42;100.00
45050;BME280;61798;48.048;-1.928;2023-06-10T05:22:28;100367.59;;;17.52;100.00
45050;BME280;61798;48.048;-1.928;2023-06-10T05:24:35;100370.25;;;17.47;100.00
45050;BME280;61798;48.048;-1.928;2023-06-10T05:26:42;100379.34;;;17.58;100.00
45050;BME280;61798;48.048;-1.928;2023-06-10T05:28:49;100374.84;;;17.63;100.00
45050;BME280;61798;48.048;-1.928;2023-06-10T05:30:56;100382.19;;;17.68;100.00
45050;BME280;61798;48.048;-1.928;2023-06-10T05:33:04;100382.69;;;17.65;100.00
45050;BME280;61798;48.048;-1.928;2023-06-10T05:35:11;100387.94;;;17.72;100.00
45050;BME280;61798;48.048;-1.928;2023-06-10T05:37:21;100392.38;;;17.78;100.00
45050;BME280;61798;48.048;-1.928;2023-06-10T05:39:27;100386.88;;;17.73;100.00
45050;BME280;61798;48.048;-1.928;2023-06-10T05:41:34;100388.13;;;17.82;100.00
45050;BME280;61798;48.048;-1.928;2023-06-10T05:43:42;100397.94;;;17.89;100.00
45050;BME280;61798;48.048;-1.928;2023-06-10T05:45:49;100406.03;;;17.83;100.00
45050;BME280;61798;48.048;-1.928;2023-06-10T05:47:55;100383.34;;;17.90;100.00
45050;BME280;61798;48.048;-1.928;2023-06-10T05:50:02;100396.97;;;17.95;100.00
45050;BME280;61798;48.048;-1.928;2023-06-10T05:52:09;100402.22;;;17.84;100.00
45050;BME280;61798;48.048;-1.928;2023-06-10T05:54:16;100405.94;;;17.78;100.00
45050;BME280;61798;48.048;-1.928;2023-06-10T05:56:24;100405.53;;;17.86;100.00
45050;BME280;61798;48.048;-1.928;2023-06-10T05:58:32;100403.69;;;17.92;100.00
45050;BME280;61798;48.048;-1.928;2023-06-10T06:00:39;100407.81;;;17.95;100.00
45050;BME280;61798;48.048;-1.928;2023-06-10T06:02:50;100397.94;;;17.89;100.00
45050;BME280;61798;48.048;-1.928;2023-06-10T06:04:58;100399.25;;;18.03;100.00
45050;BME280;61798;48.048;-1.928;2023-06-10T06:07:05;100395.81;;;17.91;100.00
45050;BME280;61798;48.048;-1.928;2023-06-10T06:09:12;100412.22;;;18.01;100.00
45050;BME280;61798;48.048;-1.928;2023-06-10T06:11:19;100412.97;;;17.96;100.00
45050;BME280;61798;48.048;-1.928;2023-06-10T06:13:27;100420.13;;;17.85;100.00
45050;BME280;61798;48.048;-1.928;2023-06-10T06:15:34;100416.41;;;17.92;100.00
45050;BME280;61798;48.048;-1.928;2023-06-10T06:17:40;100421.09;;;17.96;100.00
45050;BME280;61798;48.048;-1.928;2023-06-10T06:19:47;100404.38;;;17.65;100.00
45050;BME280;61798;48.048;-1.928;2023-06-10T06:21:54;100416.44;;;17.74;100.00
45050;BME280;61798;48.048;-1.928;2023-06-10T06:24:02;100424.09;;;17.95;100.00
45050;BME280;61798;48.048;-1.928;2023-06-10T06:26:09;100423.41;;;18.05;100.00
45050;BME280;61798;48.048;-1.928;2023-06-10T06:28:16;100413.38;;;17.88;100.00
45050;BME280;61798;48.048;-1.928;2023-06-10T06:30:23;100431.22;;;18.01;100.00
45050;BME280;61798;48.048;-1.928;2023-06-10T06:32:30;100417.56;;;17.96;100.00
45050;BME280;61798;48.048;-1.928;2023-06-10T06:34:38;100403.47;;;18.16;100.00
45050;BME280;61798;48.048;-1.928;2023-06-10T06:36:45;100427.50;;;18.47;100.00
45050;BME280;61798;48.048;-1.928;2023-06-10T06:38:52;100432.19;;;18.52;100.00
45050;BME280;61798;48.048;-1.928;2023-06-10T06:40:59;100429.69;;;18.96;100.00
45050;BME280;61798;48.048;-1.928;2023-06-10T06:43:12;100414.88;;;18.81;100.00
45050;BME280;61798;48.048;-1.928;2023-06-10T06:45:19;100381.31;;;18.65;100.00
45050;BME280;61798;48.048;-1.928;2023-06-10T06:47:26;100413.84;;;18.87;100.00
45050;BME280;61798;48.048;-1.928;2023-06-10T06:49:33;100411.09;;;18.82;100.00
45050;BME280;61798;48.048;-1.928;2023-06-10T06:51:40;100413.31;;;18.85;100.00
45050;BME280;61798;48.048;-1.928;2023-06-10T06:53:49;100414.91;;;19.09;100.00
45050;BME280;61798;48.048;-1.928;2023-06-10T06:56:00;100422.22;;;19.08;100.00
45050;BME280;61798;48.048;-1.928;2023-06-10T06:58:10;100413.91;;;19.20;100.00
45050;BME280;61798;48.048;-1.928;2023-06-10T07:00:19;100397.19;;;19.29;100.00
45050;BME280;61798;48.048;-1.928;2023-06-10T07:02:30;100404.13;;;19.47;100.00
45050;BME280;61798;48.048;-1.928;2023-06-10T07:04:46;100392.44;;;19.47;100.00
45050;BME280;61798;48.048;-1.928;2023-06-10T07:06:56;100403.09;;;19.53;100.00
45050;BME280;61798;48.048;-1.928;2023-06-10T07:09:04;100398.44;;;19.49;100.00
45050;BME280;61798;48.048;-1.928;2023-06-10T07:11:11;100406.34;;;19.50;100.00
45050;BME280;61798;48.048;-1.928;2023-06-10T07:13:22;100400.59;;;19.47;100.00
45050;BME280;61798;48.048;-1.928;2023-06-10T07:15:39;100399.81;;;19.51;100.00
45050;BME280;61798;48.048;-1.928;2023-06-10T07:17:45;100404.59;;;19.39;100.00
45050;BME280;61798;48.048;-1.928;2023-06-10T07:19:51;100400.38;;;19.53;100.00
45050;BME280;61798;48.048;-1.928;2023-06-10T07:21:57;100401.88;;;19.39;100.00
45050;BME280;61798;48.048;-1.928;2023-06-10T07:24:04;100394.97;;;19.59;100.00
45050;BME280;61798;48.048;-1.928;2023-06-10T07:26:12;100393.41;;;19.68;100.00
45050;BME280;61798;48.048;-1.928;2023-06-10T07:28:20;100412.97;;;19.65;100.00
45050;BME280;61798;48.048;-1.928;2023-06-10T07:30:28;100417.72;;;19.85;100.00
45050;BME280;61798;48.048;-1.928;2023-06-10T07:32:35;100422.19;;;20.02;100.00
45050;BME280;61798;48.048;-1.928;2023-06-10T07:34:42;100426.44;;;20.31;100.00
45050;BME280;61798;48.048;-1.928;2023-06-10T07:36:51;100421.59;;;20.44;100.00
45050;BME280;61798;48.048;-1.928;2023-06-10T07:38:58;100407.16;;;20.38;100.00
45050;BME280;61798;48.048;-1.928;2023-06-10T07:41:05;100400.34;;;20.30;100.00
45050;BME280;61798;48.048;-1.928;2023-06-10T07:43:12;100415.88;;;20.40;100.00
45050;BME280;61798;48.048;-1.928;2023-06-10T07:45:20;100413.50;;;20.59;100.00
45050;BME280;61798;48.048;-1.928;2023-06-10T07:47:27;100403.69;;;20.53;100.00
45050;BME280;61798;48.048;-1.928;2023-06-10T07:49:33;100418.44;;;20.68;100.00
45050;BME280;61798;48.048;-1.928;2023-06-10T07:51:41;100415.97;;;20.61;100.00
45050;BME280;61798;48.048;-1.928;2023-06-10T07:53:55;100418.69;;;20.66;100.00
45050;BME280;61798;48.048;-1.928;2023-06-10T07:56:01;100414.91;;;20.73;100.00
45050;BME280;61798;48.048;-1.928;2023-06-10T07:58:06;100405.97;;;20.88;100.00
45050;BME280;61798;48.048;-1.928;2023-06-10T08:00:13;100389.34;;;20.84;100.00
45050;BME280;61798;48.048;-1.928;2023-06-10T08:02:18;100414.13;;;20.98;100.00
45050;BME280;61798;48.048;-1.928;2023-06-10T08:04:24;100414.72;;;21.06;100.00
45050;BME280;61798;48.048;-1.928;2023-06-10T08:06:30;100415.31;;;21.23;100.00
45050;BME280;61798;48.048;-1.928;2023-06-10T08:08:36;100419.66;;;21.24;100.00
45050;BME280;61798;48.048;-1.928;2023-06-10T08:10:47;100415.03;;;21.41;100.00
45050;BME280;61798;48.048;-1.928;2023-06-10T08:12:54;100390.25;;;21.37;100.00
45050;BME280;61798;48.048;-1.928;2023-06-10T08:15:01;100429.75;;;21.55;100.00
45050;BME280;61798;48.048;-1.928;2023-06-10T08:17:07;100424.84;;;21.47;100.00
45050;BME280;61798;48.048;-1.928;2023-06-10T08:19:13;100432.50;;;21.61;100.00
45050;BME280;61798;48.048;-1.928;2023-06-10T08:21:19;100424.31;;;21.45;100.00
45050;BME280;61798;48.048;-1.928;2023-06-10T08:23:25;100421.84;;;21.49;100.00
45050;BME280;61798;48.048;-1.928;2023-06-10T08:25:30;100410.69;;;21.29;100.00
45050;BME280;61798;48.048;-1.928;2023-06-10T08:27:36;100430.56;;;21.72;100.00
45050;BME280;61798;48.048;-1.928;2023-06-10T08:29:42;100393.50;;;21.23;100.00
45050;BME280;61798;48.048;-1.928;2023-06-10T08:31:48;100426.75;;;21.26;100.00
45050;BME280;61798;48.048;-1.928;2023-06-10T08:33:54;100426.47;;;21.27;100.00
45050;BME280;61798;48.048;-1.928;2023-06-10T08:35:59;100440.66;;;21.34;100.00
45050;BME280;61798;48.048;-1.928;2023-06-10T08:38:05;100454.03;;;21.52;100.00
45050;BME280;61798;48.048;-1.928;2023-06-10T08:40:12;100447.19;;;21.28;100.00
45050;BME280;61798;48.048;-1.928;2023-06-10T08:42:45;100437.63;;;21.10;100.00
45050;BME280;61798;48.048;-1.928;2023-06-10T08:44:55;100443.81;;;20.84;100.00
45050;BME280;61798;48.048;-1.928;2023-06-10T08:47:12;100448.44;;;20.84;100.00
45050;BME280;61798;48.048;-1.928;2023-06-10T08:49:18;100457.78;;;21.09;100.00
45050;BME280;61798;48.048;-1.928;2023-06-10T08:51:27;100448.16;;;20.90;100.00
45050;BME280;61798;48.048;-1.928;2023-06-10T08:53:36;100455.63;;;21.27;100.00
45050;BME280;61798;48.048;-1.928;2023-06-10T08:55:43;100453.94;;;21.05;100.00
45050;BME280;61798;48.048;-1.928;2023-06-10T08:57:52;100455.84;;;21.04;100.00
45050;BME280;61798;48.048;-1.928;2023-06-10T08:59:58;100462.69;;;21.22;100.00
45050;BME280;61798;48.048;-1.928;2023-06-10T09:02:04;100447.06;;;20.81;100.00
45050;BME280;61798;48.048;-1.928;2023-06-10T09:04:10;100458.53;;;20.88;100.00
45050;BME280;61798;48.048;-1.928;2023-06-10T09:06:17;100461.22;;;20.78;100.00
45050;BME280;61798;48.048;-1.928;2023-06-10T09:08:24;100470.19;;;20.78;100.00
45050;BME280;61798;48.048;-1.928;2023-06-10T09:10:29;100464.78;;;20.94;100.00
45050;BME280;61798;48.048;-1.928;2023-06-10T09:12:36;100465.41;;;21.07;100.00
45050;BME280;61798;48.048;-1.928;2023-06-10T09:14:43;100442.28;;;21.09;100.00
45050;BME280;61798;48.048;-1.928;2023-06-10T09:16:49;100455.22;;;20.86;100.00
45050;BME280;61798;48.048;-1.928;2023-06-10T09:18:55;100458.81;;;21.02;100.00
45050;BME280;61798;48.048;-1.928;2023-06-10T09:21:01;100472.72;;;21.01;100.00
45050;BME280;61798;48.048;-1.928;2023-06-10T09:23:07;100480.50;;;20.71;100.00
45050;BME280;61798;48.048;-1.928;2023-06-10T09:25:13;100459.22;;;20.63;100.00
45050;BME280;61798;48.048;-1.928;2023-06-10T09:27:19;100473.66;;;20.63;100.00
45050;BME280;61798;48.048;-1.928;2023-06-10T09:29:25;100481.13;;;20.94;100.00
45050;BME280;61798;48.048;-1.928;2023-06-10T09:31:32;100472.50;;;21.08;100.00
45050;BME280;61798;48.048;-1.928;2023-06-10T09:33:40;100473.09;;;21.26;100.00
45050;BME280;61798;48.048;-1.928;2023-06-10T09:35:47;100478.25;;;21.32;100.00
45050;BME280;61798;48.048;-1.928;2023-06-10T09:37:56;100473.94;;;21.58;100.00
45050;BME280;61798;48.048;-1.928;2023-06-10T09:42:17;100458.94;;;21.76;100.00
45050;BME280;61798;48.048;-1.928;2023-06-10T09:44:23;100460.53;;;22.24;100.00
45050;BME280;61798;48.048;-1.928;2023-06-10T09:46:31;100434.31;;;22.18;100.00
45050;BME280;61798;48.048;-1.928;2023-06-10T09:48:46;100457.50;;;22.31;100.00
45050;BME280;61798;48.048;-1.928;2023-06-10T09:50:52;100456.16;;;22.23;100.00
45050;BME280;61798;48.048;-1.928;2023-06-10T09:52:58;100466.19;;;22.44;100.00
45050;BME280;61798;48.048;-1.928;2023-06-10T09:55:04;100465.94;;;22.29;100.00
45050;BME280;61798;48.048;-1.928;2023-06-10T09:57:13;100461.03;;;22.37;100.00
45050;BME280;61798;48.048;-1.928;2023-06-10T09:59:29;100466.56;;;22.05;100.00
45050;BME280;61798;48.048;-1.928;2023-06-10T10:01:37;100460.78;;;22.33;100.00
45050;BME280;61798;48.048;-1.928;2023-06-10T10:03:48;100465.81;;;22.66;100.00
45050;BME280;61798;48.048;-1.928;2023-06-10T10:05:58;100458.75;;;22.60;100.00
45050;BME280;61798;48.048;-1.928;2023-06-10T10:08:05;100452.16;;;22.71;100.00
45050;BME280;61798;48.048;-1.928;2023-06-10T10:10:11;100451.50;;;22.96;100.00
45050;BME280;61798;48.048;-1.928;2023-06-10T10:12:18;100444.06;;;23.07;100.00
45050;BME280;61798;48.048;-1.928;2023-06-10T10:14:24;100442.97;;;22.46;100.00
45050;BME280;61798;48.048;-1.928;2023-06-10T10:16:36;100459.06;;;22.53;100.00
45050;BME280;61798;48.048;-1.928;2023-06-10T10:18:57;100458.78;;;22.49;100.00
45050;BME280;61798;48.048;-1.928;2023-06-10T10:21:06;100451.78;;;22.22;100.00
45050;BME280;61798;48.048;-1.928;2023-06-10T10:23:22;100455.59;;;22.32;100.00
45050;BME280;61798;48.048;-1.928;2023-06-10T10:25:34;100470.38;;;21.99;100.00
45050;BME280;61798;48.048;-1.928;2023-06-10T10:27:44;100475.50;;;22.22;100.00
45050;BME280;61798;48.048;-1.928;2023-06-10T10:29:55;100475.28;;;21.76;100.00
45050;BME280;61798;48.048;-1.928;2023-06-10T10:32:08;100449.09;;;21.59;100.00
45050;BME280;61798;48.048;-1.928;2023-06-10T10:34:21;100474.47;;;21.70;100.00
45050;BME280;61798;48.048;-1.928;2023-06-10T10:36:31;100466.28;;;22.02;100.00
45050;BME280;61798;48.048;-1.928;2023-06-10T10:38:37;100462.13;;;22.31;100.00
45050;BME280;61798;48.048;-1.928;2023-06-10T10:40:44;100460.53;;;22.19;100.00
45050;BME280;61798;48.048;-1.928;2023-06-10T10:42:51;100470.13;;;22.01;100.00
45050;BME280;61798;48.048;-1.928;2023-06-10T10:44:58;100476.94;;;22.08;100.00
45050;BME280;61798;48.048;-1.928;2023-06-10T10:47:08;100461.81;;;22.37;100.00
45050;BME280;61798;48.048;-1.928;2023-06-10T10:49:15;100452.38;;;22.03;100.00
45050;BME280;61798;48.048;-1.928;2023-06-10T10:51:23;100435.47;;;21.96;100.00
45050;BME280;61798;48.048;-1.928;2023-06-10T10:53:30;100449.09;;;22.17;100.00
45050;BME280;61798;48.048;-1.928;2023-06-10T10:55:36;100465.88;;;22.50;100.00
45050;BME280;61798;48.048;-1.928;2023-06-10T10:57:42;100457.47;;;22.36;100.00